createdAt,value
2022-12-19T00:00:49.905Z,7.30
2022-12-19T00:01:49.843Z,6.90
2022-12-19T00:02:49.985Z,7.60
2022-12-19T00:03:49.356Z,6.80
2022-12-19T00:04:50.138Z,7.70
2022-12-19T00:05:49.373Z,7.90
2022-12-19T00:06:49.963Z,7.80
2022-12-19T00:07:49.173Z,7.50
2022-12-19T00:08:49.764Z,7.50
2022-12-19T00:09:48.943Z,8.00
2022-12-19T00:10:49.835Z,7.30
2022-12-19T00:11:49.215Z,7.40
2022-12-19T00:12:49.010Z,6.80
2022-12-19T00:13:49.811Z,7.40
2022-12-19T00:14:49.706Z,6.70
2022-12-19T00:15:49.659Z,7.90
2022-12-19T00:16:49.764Z,6.90
2022-12-19T00:17:48.909Z,8.10
2022-12-19T00:18:48.902Z,8.00
2022-12-19T00:19:48.954Z,8.00
2022-12-19T00:20:49.011Z,7.60
2022-12-19T00:21:49.095Z,7.70
2022-12-19T00:22:49.802Z,8.00
2022-12-19T00:23:48.762Z,7.00
2022-12-19T00:24:48.765Z,8.00
2022-12-19T00:25:48.750Z,7.30
2022-12-19T00:26:48.762Z,8.30
2022-12-19T00:27:48.748Z,7.60
2022-12-19T00:28:48.756Z,8.30
2022-12-19T00:29:48.766Z,7.00
2022-12-19T00:30:48.763Z,8.10
2022-12-19T00:31:48.817Z,7.60
2022-12-19T00:32:48.747Z,7.30
2022-12-19T00:33:48.754Z,7.80
2022-12-19T00:34:48.647Z,7.00
2022-12-19T00:35:48.765Z,7.40
2022-12-19T00:36:48.758Z,7.40
2022-12-19T00:37:49.687Z,7.50
2022-12-19T00:38:49.431Z,7.40
2022-12-19T00:39:48.574Z,7.10
2022-12-19T00:40:48.759Z,8.00
2022-12-19T00:41:48.756Z,7.30
2022-12-19T00:42:53.346Z,7.50
2022-12-19T00:43:48.843Z,7.00
2022-12-19T00:44:48.876Z,8.20
2022-12-19T00:45:48.897Z,8.60
2022-12-19T00:46:52.510Z,6.60
2022-12-19T00:47:48.539Z,7.20
2022-12-19T00:48:48.664Z,7.80
2022-12-19T00:49:48.474Z,8.20
2022-12-19T00:50:48.723Z,7.20
2022-12-19T00:51:48.761Z,7.40
2022-12-19T00:52:48.784Z,8.80
2022-12-19T00:53:48.868Z,7.10
2022-12-19T00:54:48.602Z,7.50
2022-12-19T00:55:48.783Z,6.30
2022-12-19T00:56:48.782Z,7.80
2022-12-19T00:57:48.791Z,7.80
2022-12-19T00:58:48.413Z,7.30
2022-12-19T00:59:48.793Z,8.50
2022-12-19T01:00:48.841Z,7.80
2022-12-19T01:01:49.009Z,7.70
2022-12-19T01:02:48.983Z,7.60
2022-12-19T01:04:11.270Z,7.80
2022-12-19T01:04:49.495Z,7.30
2022-12-19T01:05:48.802Z,7.00
2022-12-19T01:06:48.792Z,7.10
2022-12-19T01:07:48.793Z,7.60
2022-12-19T01:08:48.206Z,7.30
2022-12-19T01:09:48.811Z,7.20
2022-12-19T01:10:48.830Z,7.10
2022-12-19T01:11:48.171Z,8.00
2022-12-19T01:12:48.798Z,7.30
2022-12-19T01:13:48.520Z,7.20
2022-12-19T01:14:48.798Z,7.50
2022-12-19T01:15:48.171Z,7.60
2022-12-19T01:16:48.221Z,7.20
2022-12-19T01:17:48.229Z,8.50
2022-12-19T01:18:48.269Z,8.00
2022-12-19T01:19:48.354Z,7.00
2022-12-19T01:20:48.392Z,7.10
2022-12-19T01:21:48.429Z,6.70
2022-12-19T01:22:48.488Z,7.00
2022-12-19T01:23:48.548Z,6.90
2022-12-19T01:24:48.655Z,7.60
2022-12-19T01:25:48.674Z,7.70
2022-12-19T01:26:48.047Z,8.60
2022-12-19T01:27:48.742Z,6.80
2022-12-19T01:28:48.737Z,7.30
2022-12-19T01:29:52.424Z,7.30
2022-12-19T01:30:48.758Z,7.30
2022-12-19T01:31:48.735Z,7.50
2022-12-19T01:32:48.607Z,7.10
2022-12-19T01:33:48.735Z,7.50
2022-12-19T01:34:47.928Z,7.80
2022-12-19T01:35:48.577Z,7.20
2022-12-19T01:36:48.756Z,7.20
2022-12-19T01:37:48.830Z,8.00
2022-12-19T01:38:48.545Z,8.10
2022-12-19T01:39:48.826Z,8.20
2022-12-19T01:40:48.628Z,8.10
2022-12-19T01:41:48.004Z,7.40
2022-12-19T01:42:48.673Z,7.00
2022-12-19T01:43:48.663Z,7.90
2022-12-19T01:44:47.744Z,7.60
2022-12-19T01:45:47.831Z,7.10
2022-12-19T01:46:47.845Z,6.60
2022-12-19T01:47:48.684Z,8.20
2022-12-19T01:48:48.746Z,7.70
2022-12-19T01:49:48.033Z,7.20
2022-12-19T01:51:01.259Z,7.20
2022-12-19T01:51:48.763Z,8.50
2022-12-19T01:52:48.219Z,8.50
2022-12-19T01:53:49.435Z,7.80
2022-12-19T01:54:47.613Z,7.50
2022-12-19T01:55:48.416Z,6.60
2022-12-19T01:56:48.322Z,7.40
2022-12-19T01:57:48.463Z,6.60
2022-12-19T01:58:47.591Z,7.50
2022-12-19T01:59:48.623Z,7.60
2022-12-19T02:00:48.529Z,7.70
2022-12-19T02:01:51.834Z,7.80
2022-12-19T02:02:48.798Z,7.60
2022-12-19T02:03:48.423Z,7.40
2022-12-19T02:04:48.353Z,7.00
2022-12-19T02:05:48.252Z,7.90
2022-12-19T02:06:48.387Z,7.80
2022-12-19T02:07:47.460Z,7.40
2022-12-19T02:08:47.419Z,6.90
2022-12-19T02:09:47.388Z,7.80
2022-12-19T02:10:47.492Z,7.80
2022-12-19T02:11:47.476Z,7.50
2022-12-19T02:12:47.403Z,6.80
2022-12-19T02:13:47.370Z,7.80
2022-12-19T02:14:47.384Z,7.40
2022-12-19T02:15:47.398Z,8.30
2022-12-19T02:16:47.392Z,8.00
2022-12-19T02:17:52.543Z,8.20
2022-12-19T02:18:48.748Z,7.90
2022-12-19T02:19:47.378Z,7.00
2022-12-19T02:20:47.381Z,8.00
2022-12-19T02:21:47.439Z,8.00
2022-12-19T02:22:47.382Z,7.90
2022-12-19T02:23:47.410Z,7.50
2022-12-19T02:24:47.382Z,6.80
2022-12-19T02:25:47.467Z,7.40
2022-12-19T02:26:47.383Z,7.50
2022-12-19T02:27:47.263Z,7.50
2022-12-19T02:28:47.406Z,7.50
2022-12-19T02:29:47.385Z,7.00
2022-12-19T02:30:47.399Z,7.90
2022-12-19T02:31:47.448Z,9.40
2022-12-19T02:32:47.425Z,7.10
2022-12-19T02:33:47.406Z,7.40
2022-12-19T02:34:47.433Z,8.50
2022-12-19T02:35:47.394Z,7.70
2022-12-19T02:36:48.362Z,7.50
2022-12-19T02:37:47.417Z,7.20
2022-12-19T02:38:47.273Z,7.30
2022-12-19T02:39:47.396Z,8.20
2022-12-19T02:40:50.930Z,7.60
2022-12-19T02:41:48.798Z,7.40
2022-12-19T02:42:47.017Z,6.60
2022-12-19T02:43:47.215Z,7.10
2022-12-19T02:44:47.122Z,7.50
2022-12-19T02:45:47.215Z,9.20
2022-12-19T02:46:47.247Z,7.10
2022-12-19T02:47:47.304Z,8.40
2022-12-19T02:48:47.414Z,7.50
2022-12-19T02:49:47.275Z,7.70
2022-12-19T02:50:50.259Z,8.60
2022-12-19T02:51:47.403Z,7.40
2022-12-19T02:52:47.413Z,7.40
2022-12-19T02:53:47.221Z,7.50
2022-12-19T02:54:47.456Z,7.90
2022-12-19T02:55:47.417Z,7.70
2022-12-19T02:56:47.463Z,8.40
2022-12-19T02:57:47.418Z,7.00
2022-12-19T02:58:47.825Z,8.20
2022-12-19T02:59:47.412Z,8.90
2022-12-19T03:00:47.284Z,7.60
2022-12-19T03:01:47.114Z,7.80
2022-12-19T03:02:47.422Z,7.30
2022-12-19T03:03:48.227Z,7.90
2022-12-19T03:04:47.404Z,6.70
2022-12-19T03:05:47.406Z,7.80
2022-12-19T03:06:47.409Z,8.10
2022-12-19T03:07:47.430Z,7.10
2022-12-19T03:08:46.706Z,9.00
2022-12-19T03:09:47.431Z,7.90
2022-12-19T03:10:46.659Z,8.10
2022-12-19T03:11:46.746Z,6.40
2022-12-19T03:12:46.857Z,8.50
2022-12-19T03:13:46.829Z,8.60
2022-12-19T03:14:46.889Z,7.70
2022-12-19T03:15:46.939Z,7.80
2022-12-19T03:16:47.024Z,7.60
2022-12-19T03:17:47.049Z,8.60
2022-12-19T03:18:47.096Z,7.40
2022-12-19T03:19:47.179Z,7.20
2022-12-19T03:20:47.220Z,7.70
2022-12-19T03:21:47.267Z,8.20
2022-12-19T03:22:47.304Z,8.30
2022-12-19T03:23:47.401Z,8.40
2022-12-19T03:24:47.338Z,7.60
2022-12-19T03:25:47.238Z,8.20
2022-12-19T03:26:47.401Z,8.40
2022-12-19T03:27:47.469Z,7.60
2022-12-19T03:28:47.212Z,7.40
2022-12-19T03:29:47.019Z,7.10
2022-12-19T03:30:47.316Z,8.40
2022-12-19T03:31:47.177Z,7.80
2022-12-19T03:32:47.083Z,7.80
2022-12-19T03:33:47.240Z,7.60
2022-12-19T03:34:47.423Z,7.70
2022-12-19T03:35:46.369Z,7.10
2022-12-19T03:36:46.468Z,7.50
2022-12-19T03:37:47.126Z,8.10
2022-12-19T03:38:46.343Z,7.70
2022-12-19T03:39:46.308Z,8.20
2022-12-19T03:40:46.351Z,8.10
2022-12-19T03:41:46.407Z,8.50
2022-12-19T03:42:46.468Z,7.70
2022-12-19T03:43:46.530Z,8.00
2022-12-19T03:44:46.579Z,7.00
2022-12-19T03:45:46.689Z,7.40
2022-12-19T03:46:46.696Z,8.40
2022-12-19T03:47:46.750Z,8.30
2022-12-19T03:48:46.812Z,8.00
2022-12-19T03:49:46.860Z,8.70
2022-12-19T03:50:46.891Z,7.40
2022-12-19T03:51:46.991Z,7.30
2022-12-19T03:52:46.969Z,9.00
2022-12-19T03:53:46.883Z,8.30
2022-12-19T03:54:47.038Z,7.70
2022-12-19T03:55:46.931Z,7.50
2022-12-19T03:56:46.838Z,8.50
2022-12-19T03:57:46.093Z,7.20
2022-12-19T03:58:46.882Z,8.80
2022-12-19T03:59:46.811Z,8.50
2022-12-19T04:00:46.965Z,8.10
2022-12-19T04:01:46.920Z,7.60
2022-12-19T04:02:46.767Z,8.50
2022-12-19T04:03:46.951Z,8.60
2022-12-19T04:04:46.844Z,8.70
2022-12-19T04:05:46.740Z,8.60
2022-12-19T04:06:46.897Z,7.80
2022-12-19T04:07:46.816Z,8.50
2022-12-19T04:08:45.931Z,8.20
2022-12-19T04:09:45.998Z,8.50
2022-12-19T04:10:46.053Z,7.30
2022-12-19T04:11:46.093Z,7.50
2022-12-19T04:12:46.147Z,8.40
2022-12-19T04:13:46.259Z,8.00
2022-12-19T04:14:46.270Z,8.20
2022-12-19T04:15:45.901Z,7.50
2022-12-19T04:16:46.447Z,8.30
2022-12-19T04:17:46.487Z,7.40
2022-12-19T04:18:46.572Z,7.10
2022-12-19T04:19:46.080Z,8.60
2022-12-19T04:20:46.687Z,7.90
2022-12-19T04:21:46.698Z,7.80
2022-12-19T04:22:46.638Z,7.80
2022-12-19T04:23:46.551Z,8.00
2022-12-19T04:24:46.708Z,7.80
2022-12-19T04:25:46.617Z,7.60
2022-12-19T04:26:46.529Z,8.00
2022-12-19T04:27:46.418Z,7.50
2022-12-19T04:28:45.676Z,7.80
2022-12-19T04:29:47.255Z,7.40
2022-12-19T04:30:45.767Z,8.30
2022-12-19T04:31:46.549Z,7.30
2022-12-19T04:32:46.481Z,8.20
2022-12-19T04:33:46.352Z,7.30
2022-12-19T04:34:46.514Z,8.40
2022-12-19T04:35:46.419Z,7.10
2022-12-19T04:36:45.597Z,7.80
2022-12-19T04:37:45.614Z,7.30
2022-12-19T04:38:45.739Z,8.10
2022-12-19T04:39:45.725Z,8.20
2022-12-19T04:40:45.555Z,8.90
2022-12-19T04:41:45.825Z,9.00
2022-12-19T04:42:45.889Z,7.40
2022-12-19T04:43:45.958Z,7.80
2022-12-19T04:44:46.048Z,7.00
2022-12-19T04:45:46.068Z,7.70
2022-12-19T04:46:45.508Z,8.50
2022-12-19T04:47:46.171Z,7.80
2022-12-19T04:48:46.214Z,8.30
2022-12-19T04:49:46.291Z,7.60
2022-12-19T04:50:46.262Z,7.00
2022-12-19T04:51:46.190Z,8.40
2022-12-19T04:52:46.017Z,7.50
2022-12-19T04:53:46.230Z,9.00
2022-12-19T04:54:46.128Z,8.00
2022-12-19T04:55:46.307Z,8.40
2022-12-19T04:56:46.192Z,7.80
2022-12-19T04:57:46.089Z,7.80
2022-12-19T04:58:45.323Z,8.10
2022-12-19T04:59:45.391Z,7.70
2022-12-19T05:00:46.080Z,8.00
2022-12-19T05:01:46.891Z,8.50
2022-12-19T05:02:46.307Z,7.50
2022-12-19T05:03:51.331Z,8.60
2022-12-19T05:04:46.958Z,8.40
2022-12-19T05:05:45.199Z,8.20
2022-12-19T05:06:45.248Z,8.00
2022-12-19T05:07:45.297Z,6.90
2022-12-19T05:08:45.372Z,8.20
2022-12-19T05:09:45.416Z,7.60
2022-12-19T05:10:45.499Z,8.40
2022-12-19T05:11:45.596Z,8.90
2022-12-19T05:12:45.677Z,8.00
2022-12-19T05:13:45.687Z,8.70
2022-12-19T05:14:45.800Z,7.30
2022-12-19T05:15:45.824Z,8.30
2022-12-19T05:16:45.931Z,8.00
2022-12-19T05:17:45.936Z,9.20
2022-12-19T05:18:45.875Z,8.70
2022-12-19T05:19:45.774Z,7.50
2022-12-19T05:20:45.020Z,7.90
2022-12-19T05:21:45.431Z,7.50
2022-12-19T05:22:45.746Z,7.90
2022-12-19T05:23:45.925Z,7.80
2022-12-19T05:24:45.812Z,9.20
2022-12-19T05:25:45.711Z,8.40
2022-12-19T05:26:45.572Z,8.50
2022-12-19T05:27:45.790Z,8.80
2022-12-19T05:28:45.691Z,9.30
2022-12-19T05:29:45.850Z,8.80
2022-12-19T05:30:51.916Z,8.40
2022-12-19T05:31:46.767Z,7.70
2022-12-19T05:32:45.091Z,7.10
2022-12-19T05:33:45.718Z,8.70
2022-12-19T05:34:44.913Z,7.70
2022-12-19T05:35:46.540Z,7.90
2022-12-19T05:36:45.059Z,8.20
2022-12-19T05:37:45.020Z,8.70
2022-12-19T05:38:44.841Z,8.10
2022-12-19T05:39:45.129Z,9.00
2022-12-19T05:40:45.262Z,8.80
2022-12-19T05:41:48.776Z,8.00
2022-12-19T05:42:45.353Z,8.10
2022-12-19T05:43:45.405Z,8.10
2022-12-19T05:44:45.480Z,8.40
2022-12-19T05:45:45.477Z,9.00
2022-12-19T05:46:44.842Z,8.20
2022-12-19T05:47:45.596Z,8.60
2022-12-19T05:48:45.609Z,7.90
2022-12-19T05:49:45.453Z,8.90
2022-12-19T05:50:45.635Z,8.10
2022-12-19T05:51:45.535Z,7.40
2022-12-19T05:52:45.635Z,7.30
2022-12-19T05:53:45.343Z,8.60
2022-12-19T05:54:45.486Z,7.90
2022-12-19T05:55:45.446Z,9.60
2022-12-19T05:56:44.836Z,8.20
2022-12-19T05:57:44.622Z,7.70
2022-12-19T05:58:45.353Z,8.10
2022-12-19T05:59:45.256Z,7.90
2022-12-19T06:00:45.426Z,8.10
2022-12-19T06:01:44.971Z,7.60
2022-12-19T06:02:44.656Z,8.00
2022-12-19T06:03:44.567Z,8.70
2022-12-19T06:04:44.580Z,7.40
2022-12-19T06:05:44.571Z,8.00
2022-12-19T06:06:44.461Z,7.90
2022-12-19T06:07:44.799Z,7.70
2022-12-19T06:08:44.704Z,7.80
2022-12-19T06:09:44.821Z,8.10
2022-12-19T06:10:44.858Z,7.80
2022-12-19T06:11:44.932Z,8.00
2022-12-19T06:12:44.980Z,7.80
2022-12-19T06:13:45.038Z,7.50
2022-12-19T06:14:45.085Z,7.70
2022-12-19T06:15:45.139Z,8.00
2022-12-19T06:16:44.348Z,8.00
2022-12-19T06:17:44.295Z,8.20
2022-12-19T06:18:45.312Z,7.80
2022-12-19T06:19:44.285Z,7.80
2022-12-19T06:20:44.255Z,9.10
2022-12-19T06:21:48.340Z,8.20
2022-12-19T06:22:44.236Z,7.90
2022-12-19T06:23:44.242Z,8.10
2022-12-19T06:24:44.247Z,7.80
2022-12-19T06:25:44.251Z,8.40
2022-12-19T06:26:44.247Z,7.80
2022-12-19T06:27:44.253Z,8.50
2022-12-19T06:28:44.245Z,6.70
2022-12-19T06:29:44.249Z,7.70
2022-12-19T06:30:44.245Z,8.60
2022-12-19T06:31:44.264Z,8.30
2022-12-19T06:32:44.128Z,7.70
2022-12-19T06:33:44.168Z,8.80
2022-12-19T06:35:45.924Z,7.80
2022-12-19T06:36:44.239Z,7.90
2022-12-19T06:37:44.031Z,7.80
2022-12-19T06:38:44.254Z,8.20
2022-12-19T06:39:44.254Z,8.10
2022-12-19T06:40:44.280Z,7.40
2022-12-19T06:41:44.292Z,8.20
2022-12-19T06:42:44.297Z,8.30
2022-12-19T06:43:46.926Z,8.00
2022-12-19T06:44:44.320Z,8.30
2022-12-19T06:45:44.436Z,7.70
2022-12-19T06:46:44.338Z,7.40
2022-12-19T06:47:44.318Z,9.20
2022-12-19T06:48:44.332Z,8.30
2022-12-19T06:49:44.047Z,8.10
2022-12-19T06:50:44.348Z,7.50
2022-12-19T06:51:44.260Z,7.40
2022-12-19T06:52:43.858Z,7.70
2022-12-19T06:53:44.267Z,7.40
2022-12-19T06:54:44.284Z,8.20
2022-12-19T06:55:43.816Z,8.10
2022-12-19T06:56:44.296Z,7.80
2022-12-19T06:57:44.318Z,8.30
2022-12-19T06:58:44.349Z,8.50
2022-12-19T06:59:43.802Z,8.00
2022-12-19T07:00:43.861Z,8.50
2022-12-19T07:01:43.912Z,8.40
2022-12-19T07:02:44.004Z,7.80
2022-12-19T07:03:43.927Z,8.10
2022-12-19T07:04:44.023Z,8.40
2022-12-19T07:05:44.043Z,9.30
2022-12-19T07:06:48.859Z,9.50
2022-12-19T07:07:45.391Z,8.40
2022-12-19T07:08:44.271Z,8.40
2022-12-19T07:09:44.277Z,8.30
2022-12-19T07:10:44.327Z,7.90
2022-12-19T07:11:43.892Z,8.90
2022-12-19T07:12:44.243Z,8.20
2022-12-19T07:13:44.249Z,7.70
2022-12-19T07:14:47.737Z,9.10
2022-12-19T07:15:44.662Z,8.50
2022-12-19T07:16:44.287Z,7.00
2022-12-19T07:17:44.241Z,7.90
2022-12-19T07:18:44.308Z,8.40
2022-12-19T07:19:44.277Z,8.40
2022-12-19T07:20:45.353Z,7.20
2022-12-19T07:21:44.237Z,8.20
2022-12-19T07:22:44.204Z,7.20
2022-12-19T07:23:44.254Z,8.20
2022-12-19T07:24:44.250Z,9.00
2022-12-19T07:25:44.164Z,9.10
2022-12-19T07:26:44.253Z,7.60
2022-12-19T07:27:43.341Z,7.40
2022-12-19T07:28:43.415Z,8.50
2022-12-19T07:29:43.380Z,7.60
2022-12-19T07:30:43.533Z,7.40
2022-12-19T07:31:43.614Z,8.30
2022-12-19T07:32:43.459Z,8.20
2022-12-19T07:33:43.698Z,8.40
2022-12-19T07:34:43.738Z,7.80
2022-12-19T07:35:43.794Z,7.40
2022-12-19T07:36:44.175Z,8.00
2022-12-19T07:37:43.907Z,8.00
2022-12-19T07:38:43.945Z,8.00
2022-12-19T07:39:44.022Z,8.10
2022-12-19T07:40:44.012Z,7.50
2022-12-19T07:41:43.938Z,7.50
2022-12-19T07:42:43.155Z,7.10
2022-12-19T07:43:43.980Z,7.90
2022-12-19T07:44:43.876Z,7.30
2022-12-19T07:45:43.230Z,6.80
2022-12-19T07:46:43.955Z,6.40
2022-12-19T07:47:43.862Z,7.60
2022-12-19T07:48:44.001Z,7.30
2022-12-19T07:49:44.315Z,7.20
2022-12-19T07:50:43.812Z,6.50
2022-12-19T07:51:43.974Z,7.40
2022-12-19T07:52:43.884Z,7.20
2022-12-19T07:53:43.109Z,7.30
2022-12-19T07:54:43.955Z,6.70
2022-12-19T07:55:43.012Z,8.00
2022-12-19T07:56:43.022Z,6.80
2022-12-19T07:57:43.122Z,7.00
2022-12-19T07:58:43.834Z,6.70
2022-12-19T07:59:42.974Z,7.20
2022-12-19T08:00:43.252Z,7.90
2022-12-19T08:01:43.347Z,7.00
2022-12-19T08:02:43.412Z,7.00
2022-12-19T08:03:43.398Z,8.00
2022-12-19T08:04:43.086Z,8.20
2022-12-19T08:05:43.525Z,7.10
2022-12-19T08:06:43.009Z,6.80
2022-12-19T08:07:43.631Z,6.40
2022-12-19T08:08:43.625Z,6.60
2022-12-19T08:09:43.824Z,5.90
2022-12-19T08:10:42.912Z,5.70
2022-12-19T08:11:43.594Z,6.40
2022-12-19T08:12:43.757Z,6.60
2022-12-19T08:13:46.779Z,6.50
2022-12-19T08:14:43.569Z,6.60
2022-12-19T08:15:43.034Z,5.50
2022-12-19T08:17:11.429Z,6.30
2022-12-19T08:17:44.303Z,6.10
2022-12-19T08:18:43.251Z,6.40
2022-12-19T08:19:43.597Z,6.10
2022-12-19T08:20:43.916Z,5.80
2022-12-19T08:21:43.402Z,6.10
2022-12-19T08:22:42.681Z,6.20
2022-12-19T08:23:43.459Z,6.10
2022-12-19T08:24:43.401Z,6.20
2022-12-19T08:25:42.659Z,5.60
2022-12-19T08:26:47.408Z,6.40
2022-12-19T08:27:44.244Z,6.10
2022-12-19T08:28:42.600Z,6.50
2022-12-19T08:29:42.903Z,6.20
2022-12-19T08:30:42.980Z,5.70
2022-12-19T08:31:43.029Z,6.60
2022-12-19T08:32:42.723Z,6.20
2022-12-19T08:33:43.120Z,5.80
2022-12-19T08:34:43.169Z,6.20
2022-12-19T08:35:43.325Z,6.30
2022-12-19T08:36:43.239Z,6.00
2022-12-19T08:37:43.061Z,5.40
2022-12-19T08:38:43.316Z,5.70
2022-12-19T08:39:43.204Z,5.80
2022-12-19T08:40:47.414Z,6.00
2022-12-19T08:41:42.520Z,6.10
2022-12-19T08:42:43.715Z,4.90
2022-12-19T08:43:42.406Z,5.60
2022-12-19T08:44:43.232Z,6.00
2022-12-19T08:45:43.873Z,6.00
2022-12-19T08:46:49.677Z,5.90
2022-12-19T08:47:43.977Z,6.10
2022-12-19T08:48:43.047Z,5.30
2022-12-19T08:49:42.384Z,6.00
2022-12-19T08:50:43.175Z,5.70
2022-12-19T08:51:44.021Z,6.80
2022-12-19T08:52:42.276Z,6.00
2022-12-19T08:53:42.404Z,6.50
2022-12-19T08:54:42.379Z,6.10
2022-12-19T08:55:42.481Z,5.10
2022-12-19T08:56:46.345Z,5.70
2022-12-19T08:57:42.604Z,6.10
2022-12-19T08:58:42.594Z,6.00
2022-12-19T08:59:42.334Z,5.20
2022-12-19T09:00:42.720Z,5.90
2022-12-19T09:01:42.923Z,5.80
2022-12-19T09:02:43.051Z,6.40
2022-12-19T09:03:47.953Z,5.90
2022-12-19T09:06:02.453Z,5.60
2022-12-19T09:06:05.128Z,5.80
2022-12-19T09:06:44.326Z,5.70
2022-12-19T09:07:43.063Z,5.30
2022-12-19T09:08:42.083Z,5.30
2022-12-19T09:09:42.934Z,5.60
2022-12-19T09:10:42.781Z,5.40
2022-12-19T09:11:47.761Z,6.60
2022-12-19T09:12:43.072Z,5.30
2022-12-19T09:13:42.759Z,5.40
2022-12-19T09:14:42.915Z,6.30
2022-12-19T09:15:42.823Z,5.20
2022-12-19T09:16:42.732Z,5.50
2022-12-19T09:17:42.945Z,5.60
2022-12-19T09:18:48.225Z,5.50
2022-12-19T09:19:45.917Z,6.40
2022-12-19T09:20:42.863Z,5.70
2022-12-19T09:21:41.941Z,5.30
2022-12-19T09:22:41.931Z,4.70
2022-12-19T09:23:41.902Z,5.00
2022-12-19T09:24:42.050Z,5.90
2022-12-19T09:25:42.188Z,6.00
2022-12-19T09:26:42.232Z,4.50
2022-12-19T09:28:01.664Z,5.60
2022-12-19T09:28:43.647Z,4.80
2022-12-19T09:29:41.851Z,5.40
2022-12-19T09:30:42.486Z,5.70
2022-12-19T09:31:42.388Z,5.20
2022-12-19T09:32:42.511Z,5.40
2022-12-19T09:33:43.880Z,4.90
2022-12-19T09:34:42.572Z,5.50
2022-12-19T09:35:42.449Z,5.80
2022-12-19T09:36:42.599Z,5.80
2022-12-19T09:37:42.440Z,6.90
2022-12-19T09:38:42.673Z,4.80
2022-12-19T09:39:42.813Z,6.10
2022-12-19T09:40:42.842Z,5.50
2022-12-19T09:41:41.955Z,5.00
2022-12-19T09:42:42.680Z,5.00
2022-12-19T09:43:42.523Z,5.50
2022-12-19T09:44:45.106Z,5.30
2022-12-19T09:45:43.207Z,5.90
2022-12-19T09:46:42.434Z,5.10
2022-12-19T09:47:42.325Z,5.30
2022-12-19T09:48:41.568Z,5.40
2022-12-19T09:49:42.401Z,4.80
2022-12-19T09:50:42.275Z,5.20
2022-12-19T09:51:41.545Z,5.50
2022-12-19T09:52:41.615Z,5.90
2022-12-19T09:53:41.748Z,5.80
2022-12-19T09:54:41.727Z,6.00
2022-12-19T09:55:41.925Z,5.40
2022-12-19T09:56:45.665Z,4.80
2022-12-19T09:57:41.946Z,5.90
2022-12-19T09:58:41.546Z,5.00
2022-12-19T09:59:47.899Z,4.70
2022-12-19T10:00:42.794Z,5.10
2022-12-19T10:01:42.280Z,5.60
2022-12-19T10:02:42.438Z,6.20
2022-12-19T10:03:42.381Z,5.40
2022-12-19T10:04:41.473Z,5.40
2022-12-19T10:05:55.241Z,5.80
2022-12-19T10:07:16.034Z,5.40
2022-12-19T10:08:05.416Z,5.30
2022-12-19T10:09:19.317Z,5.60
2022-12-19T10:11:38.652Z,5.90
2022-12-19T10:12:42.159Z,6.60
2022-12-19T10:12:47.622Z,5.50
2022-12-19T10:12:51.245Z,6.50
2022-12-19T10:13:42.832Z,5.50
2022-12-19T10:14:42.030Z,5.90
2022-12-19T10:15:42.223Z,5.40
2022-12-19T10:16:52.015Z,6.10
2022-12-19T10:17:43.007Z,6.80
2022-12-19T10:18:42.147Z,6.10
2022-12-19T10:19:42.042Z,6.20
2022-12-19T10:20:41.229Z,6.90
2022-12-19T10:22:16.277Z,6.20
2022-12-19T10:22:43.230Z,6.60
2022-12-19T10:23:41.150Z,6.30
2022-12-19T10:24:41.406Z,6.30
2022-12-19T10:25:41.410Z,6.40
2022-12-19T10:26:41.747Z,6.50
2022-12-19T10:27:58.514Z,6.70
2022-12-19T10:28:43.013Z,6.50
2022-12-19T10:29:41.657Z,6.90
2022-12-19T10:30:41.337Z,5.90
2022-12-19T10:31:41.839Z,7.10
2022-12-19T10:32:41.888Z,6.30
2022-12-19T10:33:41.070Z,7.00
2022-12-19T10:34:41.924Z,6.20
2022-12-19T10:35:41.801Z,7.10
2022-12-19T10:37:12.987Z,7.00
2022-12-19T10:37:48.921Z,6.90
2022-12-19T10:38:50.964Z,6.00
2022-12-19T10:39:42.050Z,6.40
2022-12-19T10:40:40.906Z,6.80
2022-12-19T10:41:44.247Z,6.80
2022-12-19T10:42:41.781Z,7.30
2022-12-19T10:43:44.494Z,6.70
2022-12-19T10:44:42.081Z,6.60
2022-12-19T10:45:41.663Z,6.40
2022-12-19T10:46:41.818Z,6.20
2022-12-19T10:47:41.666Z,6.60
2022-12-19T10:48:42.341Z,6.80
2022-12-19T10:49:40.830Z,6.50
2022-12-19T10:50:40.925Z,6.80
2022-12-19T10:51:40.856Z,7.20
2022-12-19T10:52:40.923Z,7.00
2022-12-19T10:53:40.938Z,7.00
2022-12-19T10:54:41.512Z,8.00
2022-12-19T10:55:40.786Z,6.90
2022-12-19T10:56:41.142Z,7.00
2022-12-19T10:57:41.206Z,7.00
2022-12-19T10:58:41.280Z,8.70
2022-12-19T10:59:41.635Z,7.70
2022-12-19T11:00:41.369Z,8.10
2022-12-19T11:01:41.262Z,7.60
2022-12-19T11:02:41.350Z,8.00
2022-12-19T11:03:40.716Z,8.30
2022-12-19T11:04:40.840Z,7.70
2022-12-19T11:05:41.472Z,6.60
2022-12-19T11:06:41.666Z,7.60
2022-12-19T11:07:40.643Z,8.50
2022-12-19T11:08:41.673Z,8.10
2022-12-19T11:09:42.582Z,8.00
2022-12-19T11:12:01.139Z,7.30
2022-12-19T11:14:33.937Z,8.10
2022-12-19T11:15:41.492Z,7.80
2022-12-19T11:16:41.797Z,8.50
2022-12-19T11:17:41.625Z,7.80
2022-12-19T11:20:01.700Z,8.30
2022-12-19T11:20:14.576Z,7.70
2022-12-19T11:25:11.375Z,8.40
2022-12-19T11:29:17.148Z,7.20
2022-12-19T11:29:19.133Z,7.60
2022-12-19T11:29:30.007Z,9.20
2022-12-19T11:29:36.450Z,7.80
2022-12-19T11:29:37.163Z,7.70
2022-12-19T11:29:44.288Z,8.60
2022-12-19T11:29:44.434Z,9.00
2022-12-19T11:30:05.578Z,7.90
2022-12-19T11:30:41.544Z,7.60
2022-12-19T11:30:43.543Z,8.00
2022-12-19T11:30:43.548Z,7.70
2022-12-19T11:32:44.859Z,8.00
2022-12-19T11:33:41.158Z,8.40
2022-12-19T11:34:41.001Z,8.20
2022-12-19T11:35:40.287Z,8.50
2022-12-19T11:36:41.073Z,8.60
2022-12-19T11:37:41.135Z,8.00
2022-12-19T11:38:41.118Z,8.50
2022-12-19T11:39:41.029Z,8.40
2022-12-19T11:40:48.407Z,8.70
2022-12-19T11:41:41.598Z,7.30
2022-12-19T11:42:40.762Z,8.10
2022-12-19T11:43:44.517Z,7.90
2022-12-19T11:44:41.056Z,8.10
2022-12-19T11:45:40.980Z,6.90
2022-12-19T11:46:41.339Z,8.30
2022-12-19T11:47:40.824Z,7.30
2022-12-19T11:48:40.937Z,8.40
2022-12-19T11:49:40.046Z,8.10
2022-12-19T11:50:40.067Z,8.30
2022-12-19T11:51:40.044Z,7.90
2022-12-19T11:53:41.787Z,8.10
2022-12-19T11:54:41.005Z,8.90
2022-12-19T11:55:40.348Z,8.50
2022-12-19T11:56:40.444Z,8.80
2022-12-19T11:57:40.073Z,8.30
2022-12-19T11:58:40.637Z,8.10
2022-12-19T11:59:40.670Z,9.00
2022-12-19T12:00:40.119Z,8.80
2022-12-19T12:01:40.794Z,9.10
2022-12-19T12:02:40.154Z,8.70
2022-12-19T12:03:40.970Z,8.30
2022-12-19T12:04:40.978Z,10.70
2022-12-19T12:05:40.884Z,8.30
2022-12-19T12:06:42.279Z,8.80
2022-12-19T12:08:16.910Z,7.90
2022-12-19T12:10:21.199Z,9.00
2022-12-19T12:13:41.914Z,8.50
2022-12-19T12:14:07.992Z,7.90
2022-12-19T12:17:32.254Z,8.70
2022-12-19T12:20:13.721Z,7.70
2022-12-19T12:22:00.950Z,8.10
2022-12-19T12:25:45.824Z,7.30
2022-12-19T12:27:38.480Z,8.40
2022-12-19T12:30:09.089Z,8.00
2022-12-19T12:30:37.460Z,8.30
2022-12-19T12:31:01.217Z,8.50
2022-12-19T12:31:11.078Z,8.10
2022-12-19T12:31:15.367Z,8.20
2022-12-19T12:31:21.108Z,8.20
2022-12-19T12:31:41.324Z,9.90
2022-12-19T12:31:42.239Z,9.50
2022-12-19T12:31:45.129Z,8.80
2022-12-19T12:31:45.374Z,8.10
2022-12-19T12:31:49.684Z,8.20
2022-12-19T12:31:50.064Z,10.50
2022-12-19T12:31:50.629Z,9.40
2022-12-19T12:31:52.576Z,8.50
2022-12-19T12:35:08.606Z,8.10
2022-12-19T12:35:55.110Z,8.30
2022-12-19T12:35:56.814Z,8.10
2022-12-19T12:36:00.032Z,8.50
2022-12-19T12:38:10.826Z,8.60
2022-12-19T12:38:40.867Z,7.70
2022-12-19T12:39:40.136Z,8.70
2022-12-19T12:40:40.298Z,9.00
2022-12-19T12:41:40.737Z,7.60
2022-12-19T12:42:43.677Z,7.80
2022-12-19T12:43:40.400Z,8.50
2022-12-19T12:44:45.543Z,8.60
2022-12-19T12:45:40.947Z,8.70
2022-12-19T12:46:40.833Z,8.90
2022-12-19T12:47:40.139Z,8.40
2022-12-19T12:48:44.699Z,8.70
2022-12-19T12:49:40.306Z,8.10
2022-12-19T12:50:40.239Z,7.40
2022-12-19T12:51:40.015Z,8.00
2022-12-19T12:52:39.346Z,8.50
2022-12-19T12:53:39.431Z,8.00
2022-12-19T12:54:40.259Z,8.00
2022-12-19T12:55:39.217Z,7.90
2022-12-19T12:56:39.462Z,8.40
2022-12-19T12:57:39.618Z,7.90
2022-12-19T12:58:39.568Z,8.20
2022-12-19T12:59:39.351Z,7.60
2022-12-19T13:00:39.670Z,8.50
2022-12-19T13:01:39.411Z,7.90
2022-12-19T13:02:39.862Z,8.60
2022-12-19T13:03:40.049Z,8.10
2022-12-19T13:04:39.737Z,8.30
2022-12-19T13:05:39.643Z,7.50
2022-12-19T13:06:40.155Z,8.10
2022-12-19T13:07:40.099Z,8.50
2022-12-19T13:08:39.115Z,7.50
2022-12-19T13:09:40.234Z,9.00
2022-12-19T13:10:39.988Z,8.40
2022-12-19T13:11:39.915Z,8.10
2022-12-19T13:12:39.918Z,8.10
2022-12-19T13:13:39.018Z,8.40
2022-12-19T13:14:39.448Z,7.60
2022-12-19T13:15:39.492Z,9.20
2022-12-19T13:16:39.974Z,8.30
2022-12-19T13:17:42.781Z,7.40
2022-12-19T13:18:39.902Z,7.60
2022-12-19T13:19:39.982Z,8.40
2022-12-19T13:20:39.560Z,7.90
2022-12-19T13:21:39.376Z,8.10
2022-12-19T13:22:39.675Z,8.70
2022-12-19T13:23:39.434Z,7.40
2022-12-19T13:24:38.847Z,8.00
2022-12-19T13:25:38.830Z,7.90
2022-12-19T13:26:39.712Z,7.10